Time;durP1;ratioP1;P1;durP2;ratioP2;P2;SDS_P1;SDS_P2;PMS_P1;PMS_P2;Temp;Humidity;BMP_temperature;BMP_pressure;BME280_temperature;BME280_humidity;BME280_pressure;Samples;Min_cycle;Max_cycle;Signal;HPM_P1;HPM_P2
2023/08/13 00:00:38;;;;;;;6.22;3.88;;;;;;;;;;5029636;28;20049;-77
2023/08/13 00:03:23;;;;;;;6.40;3.85;;;;;;;;;;5013173;28;20046;-76
2023/08/13 00:06:09;;;;;;;7.10;3.80;;;;;;;;;;5021501;28;20045;-79
2023/08/13 00:08:54;;;;;;;5.00;3.28;;;;;;;;;;5019467;28;20046;-78
2023/08/13 00:11:40;;;;;;;6.43;3.47;;;;;;;;;;5020949;28;20477;-77
2023/08/13 00:14:25;;;;;;;8.40;3.60;;;;;;;;;;5020869;28;20429;-77
2023/08/13 00:17:10;;;;;;;4.97;3.70;;;;;;;;;;5013064;28;20050;-79
2023/08/13 00:19:56;;;;;;;5.68;3.67;;;;;;;;;;5013810;28;20038;-79
2023/08/13 00:22:41;;;;;;;7.20;3.80;;;;;;;;;;5013776;28;20054;-77
2023/08/13 00:25:27;;;;;;;6.47;4.10;;;;;;;;;;5012717;28;20038;-78
2023/08/13 00:28:13;;;;;;;6.93;3.92;;;;;;;;;;5013941;28;20477;-79
2023/08/13 00:30:59;;;;;;;6.40;3.33;;;;;;;;;;5039804;28;20412;-78
2023/08/13 00:33:45;;;;;;;4.97;3.40;;;;;;;;;;5028466;28;20045;-77
2023/08/13 00:36:30;;;;;;;7.25;3.70;;;;;;;;;;5033463;28;20045;-80
2023/08/13 00:39:16;;;;;;;9.23;3.85;;;;;;;;;;5036041;28;20037;-80
2023/08/13 00:42:01;;;;;;;4.65;3.65;;;;;;;;;;5028243;28;20053;-77
2023/08/13 00:44:47;;;;;;;5.38;3.92;;;;;;;;;;5027330;28;20037;-80
2023/08/13 00:47:34;;;;;;;5.22;4.10;;;;;;;;;;5021185;28;20057;-78
2023/08/13 00:50:21;;;;;;;6.47;4.07;;;;;;;;;;5025057;28;20045;-79
2023/08/13 00:53:08;;;;;;;5.97;4.20;;;;;;;;;;5035963;28;20041;-77
2023/08/13 00:55:53;;;;;;;5.63;3.90;;;;;;;;;;5036606;28;20049;-78
2023/08/13 00:58:40;;;;;;;11.65;4.05;;;;;;;;;;5034857;28;20045;-77
2023/08/13 01:01:26;;;;;;;5.90;3.75;;;;;;;;;;5034733;28;20049;-77
2023/08/13 01:04:12;;;;;;;4.90;3.55;;;;;;;;;;5019552;28;20045;-76
2023/08/13 01:07:28;;;;;;;4.78;3.58;;;;;;;;;;5033506;28;20400;-77
2023/08/13 01:10:19;;;;;;;5.53;3.53;;;;;;;;;;5011573;28;20492;-76
2023/08/13 01:13:10;;;;;;;5.75;3.63;;;;;;;;;;5033419;28;20037;-76
2023/08/13 01:15:57;;;;;;;11.82;4.05;;;;;;;;;;5033948;28;20053;-77
2023/08/13 01:18:44;;;;;;;4.82;4.00;;;;;;;;;;5039710;28;20472;-79
2023/08/13 01:21:30;;;;;;;6.07;4.05;;;;;;;;;;5033508;28;20046;-79
2023/08/13 01:24:15;;;;;;;5.53;3.47;;;;;;;;;;5026461;28;20045;-81
2023/08/13 01:27:24;;;;;;;6.13;3.63;;;;;;;;;;5026727;28;20049;-79
2023/08/13 01:30:18;;;;;;;7.72;4.15;;;;;;;;;;5042493;28;20045;-79
2023/08/13 01:33:06;;;;;;;;;;;;;;;;;;5036293;28;20388;-77
2023/08/13 01:35:52;;;;;;;6.10;3.65;;;;;;;;;;5026969;28;19913;-78
2023/08/13 01:38:37;;;;;;;9.55;3.83;;;;;;;;;;5027237;28;20049;-79
2023/08/13 01:41:23;;;;;;;5.30;3.80;;;;;;;;;;5040899;28;20049;-77
2023/08/13 01:44:09;;;;;;;4.20;3.60;;;;;;;;;;5035452;28;20042;-79
2023/08/13 01:46:54;;;;;;;4.32;3.65;;;;;;;;;;5027078;28;20045;-77
2023/08/13 01:49:39;;;;;;;4.50;3.85;;;;;;;;;;5034998;28;20041;-78
2023/08/13 01:52:25;;;;;;;5.90;3.85;;;;;;;;;;5026758;28;20037;-78
2023/08/13 01:55:11;;;;;;;6.63;3.72;;;;;;;;;;5034817;28;20041;-78
2023/08/13 01:57:56;;;;;;;6.05;3.67;;;;;;;;;;5040799;28;20049;-79
2023/08/13 02:00:41;;;;;;;5.47;3.70;;;;;;;;;;5022728;28;20049;-79
2023/08/13 02:03:28;;;;;;;6.90;4.00;;;;;;;;;;5034814;28;20045;-78
2023/08/13 02:06:14;;;;;;;5.80;3.78;;;;;;;;;;5035183;28;20053;-77
2023/08/13 02:09:00;;;;;;;6.50;4.00;;;;;;;;;;5040256;28;20053;-77
2023/08/13 02:11:45;;;;;;;5.97;4.10;;;;;;;;;;5040220;28;20049;-79
2023/08/13 02:14:30;;;;;;;7.25;4.10;;;;;;;;;;5026843;28;20061;-78
2023/08/13 02:17:16;;;;;;;4.43;3.80;;;;;;;;;;5025909;28;20476;-79
2023/08/13 02:20:03;;;;;;;5.03;4.00;;;;;;;;;;5034688;28;20049;-77
2023/08/13 02:22:48;;;;;;;5.78;3.95;;;;;;;;;;5026328;28;20045;-76
2023/08/13 02:25:34;;;;;;;5.47;3.90;;;;;;;;;;5026363;28;20057;-78
2023/08/13 02:28:19;;;;;;;5.72;4.00;;;;;;;;;;5026469;28;20050;-79
2023/08/13 02:31:05;;;;;;;6.72;4.03;;;;;;;;;;5027617;28;20045;-77
2023/08/13 02:33:52;;;;;;;4.97;3.92;;;;;;;;;;5036245;28;20041;-78
2023/08/13 02:36:37;;;;;;;5.68;4.07;;;;;;;;;;5036634;28;20053;-77
2023/08/13 02:39:23;;;;;;;6.00;3.78;;;;;;;;;;5036596;28;20049;-76
2023/08/13 02:42:08;;;;;;;4.10;3.53;;;;;;;;;;5035995;28;20054;-77
2023/08/13 02:44:54;;;;;;;5.00;3.53;;;;;;;;;;5027241;28;20045;-77
2023/08/13 02:47:39;;;;;;;8.35;4.00;;;;;;;;;;5027974;28;20049;-78
2023/08/13 02:50:24;;;;;;;8.73;3.70;;;;;;;;;;5034168;28;20484;-77
2023/08/13 02:53:10;;;;;;;8.63;3.80;;;;;;;;;;5025623;28;20492;-77
2023/08/13 02:55:55;;;;;;;5.22;3.83;;;;;;;;;;5034031;28;20049;-77
2023/08/13 02:58:41;;;;;;;6.03;4.10;;;;;;;;;;5025772;28;20053;-76
2023/08/13 03:01:27;;;;;;;5.55;3.92;;;;;;;;;;5019927;28;20476;-78
2023/08/13 03:04:12;;;;;;;6.20;4.20;;;;;;;;;;5025701;28;20045;-78
2023/08/13 03:06:58;;;;;;;5.63;3.60;;;;;;;;;;5025530;28;20054;-77
2023/08/13 03:09:43;;;;;;;7.22;4.05;;;;;;;;;;5033628;28;20515;-79
2023/08/13 03:12:29;;;;;;;4.72;3.78;;;;;;;;;;5024986;28;20043;-78
2023/08/13 03:15:14;;;;;;;5.20;3.92;;;;;;;;;;5039791;28;20065;-79
2023/08/13 03:18:00;;;;;;;4.68;3.75;;;;;;;;;;5025216;28;20041;-78
2023/08/13 03:20:47;;;;;;;12.73;4.68;;;;;;;;;;5025015;28;20045;-80
2023/08/13 03:23:32;;;;;;;7.70;4.47;;;;;;;;;;5033439;28;20038;-79
2023/08/13 03:26:18;;;;;;;8.70;4.28;;;;;;;;;;5025308;28;20049;-81
2023/08/13 03:29:03;;;;;;;8.00;4.18;;;;;;;;;;5025390;28;20045;-78
2023/08/13 03:31:49;;;;;;;6.13;3.97;;;;;;;;;;5025067;28;20468;-78
2023/08/13 03:34:41;;;;;;;8.23;4.57;;;;;;;;;;5025122;28;20049;-78
2023/08/13 03:37:27;;;;;;;5.10;4.10;;;;;;;;;;5039599;28;20045;-79
2023/08/13 03:40:13;;;;;;;7.03;4.40;;;;;;;;;;5033395;28;20045;-80
2023/08/13 03:42:58;;;;;;;10.43;4.75;;;;;;;;;;5039501;28;20057;-79
2023/08/13 03:45:44;;;;;;;6.38;3.97;;;;;;;;;;5025675;28;20057;-79
2023/08/13 03:48:30;;;;;;;8.57;4.00;;;;;;;;;;5033257;28;20404;-80
2023/08/13 03:51:15;;;;;;;5.90;3.92;;;;;;;;;;5033259;28;20400;-80
2023/08/13 03:54:01;;;;;;;6.13;4.20;;;;;;;;;;5024826;28;20049;-78
2023/08/13 03:56:50;;;;;;;7.65;4.00;;;;;;;;;;5025226;28;20049;-77
2023/08/13 03:59:36;;;;;;;6.60;4.13;;;;;;;;;;5024484;28;20049;-78
2023/08/13 04:02:22;;;;;;;6.57;3.95;;;;;;;;;;5024920;28;20427;-78
2023/08/13 04:05:10;;;;;;;5.53;4.00;;;;;;;;;;5022401;28;20397;-79
2023/08/13 04:07:55;;;;;;;7.32;4.07;;;;;;;;;;5036937;28;20057;-77
2023/08/13 04:10:41;;;;;;;6.47;4.10;;;;;;;;;;5029085;28;20049;-78
2023/08/13 04:13:27;;;;;;;5.05;3.72;;;;;;;;;;5029043;28;20058;-79
2023/08/13 04:16:12;;;;;;;5.82;3.80;;;;;;;;;;5028480;28;20488;-79
2023/08/13 04:18:59;;;;;;;6.50;4.22;;;;;;;;;;5028370;28;20046;-75
2023/08/13 04:21:45;;;;;;;6.28;4.47;;;;;;;;;;5028375;28;20054;-77
2023/08/13 04:24:31;;;;;;;5.10;3.72;;;;;;;;;;5028699;28;20053;-78
2023/08/13 04:27:17;;;;;;;6.70;4.30;;;;;;;;;;5036637;28;20041;-77
2023/08/13 04:30:05;;;;;;;5.90;3.95;;;;;;;;;;5028375;28;20049;-77
2023/08/13 04:32:55;;;;;;;5.78;3.97;;;;;;;;;;5042720;28;20389;-77
2023/08/13 04:35:44;;;;;;;6.95;3.88;;;;;;;;;;5036365;28;20041;-78
2023/08/13 04:38:29;;;;;;;7.95;3.88;;;;;;;;;;5028220;28;20045;-77
2023/08/13 04:41:17;;;;;;;7.97;4.05;;;;;;;;;;5028607;28;20485;-79
2023/08/13 04:44:06;;;;;;;4.45;3.55;;;;;;;;;;5036298;28;20053;-79
2023/08/13 04:46:53;;;;;;;5.18;4.07;;;;;;;;;;5028359;28;20045;-78
2023/08/13 04:49:39;;;;;;;5.72;3.78;;;;;;;;;;5028058;28;20045;-78
2023/08/13 04:52:25;;;;;;;6.18;4.00;;;;;;;;;;5027967;28;20045;-79
2023/08/13 04:55:12;;;;;;;8.38;4.22;;;;;;;;;;5028355;28;20053;-77
2023/08/13 04:57:57;;;;;;;4.55;3.80;;;;;;;;;;5027609;28;20476;-78
2023/08/13 05:00:43;;;;;;;6.47;4.30;;;;;;;;;;5035866;28;20054;-76
2023/08/13 05:03:28;;;;;;;6.05;4.50;;;;;;;;;;5036290;28;20049;-77
2023/08/13 05:06:14;;;;;;;8.27;4.00;;;;;;;;;;5027355;28;20045;-79
2023/08/13 05:08:59;;;;;;;6.60;3.78;;;;;;;;;;5027809;28;20049;-76
2023/08/13 05:11:45;;;;;;;10.07;3.78;;;;;;;;;;5027039;28;20053;-77
2023/08/13 05:14:30;;;;;;;5.65;3.90;;;;;;;;;;5035675;28;20045;-77
2023/08/13 05:17:21;;;;;;;5.75;3.70;;;;;;;;;;5036008;28;20049;-76
2023/08/13 05:20:07;;;;;;;5.72;3.85;;;;;;;;;;5041421;28;20412;-76
2023/08/13 05:22:52;;;;;;;5.13;3.80;;;;;;;;;;5027512;28;20049;-77
2023/08/13 05:25:38;;;;;;;9.00;4.05;;;;;;;;;;5027107;28;20472;-78
2023/08/13 05:28:24;;;;;;;5.82;4.05;;;;;;;;;;5041128;28;20049;-78
2023/08/13 05:31:10;;;;;;;9.10;4.03;;;;;;;;;;5027168;28;20053;-77
2023/08/13 05:33:57;;;;;;;6.45;3.53;;;;;;;;;;5035358;28;20050;-77
2023/08/13 05:36:43;;;;;;;5.85;3.90;;;;;;;;;;5041123;28;20049;-78
2023/08/13 05:39:29;;;;;;;4.65;3.35;;;;;;;;;;5026817;28;20041;-77
2023/08/13 05:42:14;;;;;;;8.20;4.53;;;;;;;;;;5035185;28;20068;-77
2023/08/13 05:45:00;;;;;;;6.10;4.20;;;;;;;;;;5026048;28;20041;-77
2023/08/13 05:47:44;;;;;;;6.32;3.47;;;;;;;;;;5026330;28;20049;-76
2023/08/13 05:50:30;;;;;;;5.50;3.53;;;;;;;;;;5026851;28;20481;-78
2023/08/13 05:53:16;;;;;;;6.47;3.75;;;;;;;;;;5026691;28;20037;-78
2023/08/13 05:56:01;;;;;;;7.60;3.70;;;;;;;;;;5035022;28;20045;-77
2023/08/13 05:58:47;;;;;;;7.50;3.47;;;;;;;;;;5019992;28;20049;-78
2023/08/13 06:01:33;;;;;;;6.75;3.67;;;;;;;;;;5033423;28;20049;-78
2023/08/13 06:04:19;;;;;;;6.22;3.75;;;;;;;;;;5034979;28;20042;-77
2023/08/13 06:07:04;;;;;;;5.20;3.33;;;;;;;;;;5032531;28;20041;-77
2023/08/13 06:09:49;;;;;;;7.07;3.90;;;;;;;;;;5014593;28;20042;-76
2023/08/13 06:12:35;;;;;;;4.85;3.40;;;;;;;;;;5014826;28;20049;-77
2023/08/13 06:15:21;;;;;;;8.82;3.50;;;;;;;;;;5014723;28;20042;-76
2023/08/13 06:18:06;;;;;;;5.13;3.45;;;;;;;;;;5014529;28;20049;-78
2023/08/13 06:20:52;;;;;;;6.68;4.10;;;;;;;;;;5014731;28;20054;-78
2023/08/13 06:23:38;;;;;;;7.00;3.97;;;;;;;;;;5014897;28;20046;-78
2023/08/13 06:26:24;;;;;;;5.72;3.97;;;;;;;;;;5022994;28;20045;-78
2023/08/13 06:29:09;;;;;;;6.22;3.75;;;;;;;;;;5028975;28;20041;-76
2023/08/13 06:31:54;;;;;;;8.50;3.60;;;;;;;;;;5029424;28;20041;-79
2023/08/13 06:34:41;;;;;;;6.70;3.92;;;;;;;;;;5015421;28;20041;-78
2023/08/13 06:37:26;;;;;;;5.63;3.65;;;;;;;;;;5021654;28;20429;-78
2023/08/13 06:40:12;;;;;;;7.97;4.05;;;;;;;;;;5014647;28;20049;-79
2023/08/13 06:42:57;;;;;;;6.75;3.75;;;;;;;;;;5014116;28;20057;-76
2023/08/13 06:45:45;;;;;;;4.72;3.50;;;;;;;;;;5014692;28;20369;-78
2023/08/13 06:48:32;;;;;;;5.72;3.60;;;;;;;;;;5012497;28;20034;-78
2023/08/13 06:51:17;;;;;;;8.13;3.80;;;;;;;;;;5033514;28;20038;-77
2023/08/13 06:54:02;;;;;;;5.97;3.80;;;;;;;;;;5031575;28;20104;-80
2023/08/13 06:56:47;;;;;;;10.88;4.15;;;;;;;;;;5032894;28;20054;-77
2023/08/13 06:59:33;;;;;;;7.45;3.42;;;;;;;;;;5026411;28;20038;-78
2023/08/13 07:02:19;;;;;;;8.07;3.65;;;;;;;;;;5014054;28;20049;-79
2023/08/13 07:05:05;;;;;;;5.93;3.83;;;;;;;;;;5024026;28;20037;-75
2023/08/13 07:07:51;;;;;;;9.10;4.00;;;;;;;;;;5014038;28;20034;-78
2023/08/13 07:10:38;;;;;;;11.23;4.00;;;;;;;;;;5025091;28;20053;-78
2023/08/13 07:13:25;;;;;;;6.97;3.70;;;;;;;;;;5031771;28;20045;-78
2023/08/13 07:16:13;;;;;;;5.68;3.92;;;;;;;;;;5031950;28;20042;-81
2023/08/13 07:18:59;;;;;;;6.07;4.00;;;;;;;;;;5032665;28;20492;-77
2023/08/13 07:21:45;;;;;;;6.30;3.60;;;;;;;;;;5030422;28;20045;-78
2023/08/13 07:24:30;;;;;;;5.57;3.65;;;;;;;;;;5032271;28;20038;-82
2023/08/13 07:27:16;;;;;;;6.32;4.00;;;;;;;;;;5033315;28;20496;-76
2023/08/13 07:30:02;;;;;;;6.03;3.53;;;;;;;;;;5032687;28;20037;-79
2023/08/13 07:32:47;;;;;;;6.40;3.65;;;;;;;;;;5017007;28;20049;-79
2023/08/13 07:35:32;;;;;;;7.22;4.05;;;;;;;;;;5033454;28;20049;-77
2023/08/13 07:38:18;;;;;;;5.47;3.65;;;;;;;;;;5035669;28;20049;-77
2023/08/13 07:41:04;;;;;;;7.03;3.50;;;;;;;;;;5033642;28;20041;-79
2023/08/13 07:43:50;;;;;;;5.40;3.45;;;;;;;;;;5035807;28;20488;-78
2023/08/13 07:46:36;;;;;;;4.78;3.40;;;;;;;;;;5035544;28;20379;-77
2023/08/13 07:49:21;;;;;;;8.48;3.88;;;;;;;;;;5028810;28;20049;-78
2023/08/13 07:52:07;;;;;;;5.32;3.50;;;;;;;;;;5014987;28;20041;-79
2023/08/13 07:54:52;;;;;;;5.68;3.45;;;;;;;;;;5031045;28;20050;-79
2023/08/13 07:57:39;;;;;;;4.15;2.95;;;;;;;;;;5003163;28;20050;-79
2023/08/13 08:00:24;;;;;;;10.13;3.70;;;;;;;;;;5020295;28;20050;-79
2023/08/13 08:03:09;;;;;;;10.57;3.47;;;;;;;;;;5015482;28;20045;-78
2023/08/13 08:05:55;;;;;;;10.20;3.83;;;;;;;;;;5028209;28;20049;-77
2023/08/13 08:08:40;;;;;;;8.40;3.53;;;;;;;;;;5022077;28;20050;-78
2023/08/13 08:11:26;;;;;;;4.00;3.33;;;;;;;;;;5036527;28;20050;-80
2023/08/13 08:14:12;;;;;;;5.13;3.22;;;;;;;;;;5035209;28;20041;-77
2023/08/13 08:17:02;;;;;;;8.65;3.30;;;;;;;;;;5036760;28;20400;-77
2023/08/13 08:19:48;;;;;;;5.32;3.65;;;;;;;;;;5036365;28;20041;-78
2023/08/13 08:22:34;;;;;;;6.43;3.70;;;;;;;;;;5036908;28;20484;-77
2023/08/13 08:25:19;;;;;;;5.45;3.13;;;;;;;;;;5036706;28;20041;-78
2023/08/13 08:28:04;;;;;;;5.45;3.35;;;;;;;;;;5036274;28;20489;-77
2023/08/13 08:30:50;;;;;;;4.50;3.33;;;;;;;;;;5036701;28;20045;-79
2023/08/13 08:33:35;;;;;;;4.82;3.38;;;;;;;;;;5042135;28;20042;-78
2023/08/13 08:36:20;;;;;;;6.88;3.42;;;;;;;;;;5036789;28;20045;-77
2023/08/13 08:39:06;;;;;;;8.65;3.42;;;;;;;;;;5036915;28;20404;-75
2023/08/13 08:41:56;;;;;;;7.07;3.05;;;;;;;;;;5036532;28;20054;-78
2023/08/13 08:44:42;;;;;;;5.20;3.10;;;;;;;;;;5021424;28;20041;-77
2023/08/13 08:47:29;;;;;;;6.30;2.95;;;;;;;;;;5036511;28;20037;-80
2023/08/13 08:50:15;;;;;;;6.60;3.10;;;;;;;;;;5034866;28;20053;-79
2023/08/13 08:53:00;;;;;;;4.68;2.90;;;;;;;;;;5036180;28;20045;-79
2023/08/13 08:55:47;;;;;;;5.95;3.13;;;;;;;;;;5035799;28;20045;-78
2023/08/13 08:58:34;;;;;;;4.63;2.75;;;;;;;;;;5035793;28;20037;-79
2023/08/13 09:01:19;;;;;;;4.85;3.00;;;;;;;;;;5021661;28;20065;-76
2023/08/13 09:04:05;;;;;;;7.13;3.80;;;;;;;;;;5041735;28;20046;-77
2023/08/13 09:06:58;;;;;;;6.60;3.15;;;;;;;;;;5035351;28;20400;-77
2023/08/13 09:09:48;;;;;;;5.97;2.83;;;;;;;;;;5033457;28;20042;-78
2023/08/13 09:12:36;;;;;;;5.55;3.00;;;;;;;;;;5035031;28;20405;-80
2023/08/13 09:15:22;;;;;;;4.63;2.70;;;;;;;;;;5034453;28;20473;-78
2023/08/13 09:18:08;;;;;;;5.45;2.97;;;;;;;;;;5036098;28;20038;-81
2023/08/13 09:20:55;;;;;;;4.60;2.60;;;;;;;;;;5020898;28;20037;-78
2023/08/13 09:23:41;;;;;;;4.72;2.78;;;;;;;;;;5033766;28;20045;-76
2023/08/13 09:26:28;;;;;;;4.65;2.38;;;;;;;;;;5035251;28;20045;-77
2023/08/13 09:29:14;;;;;;;3.90;2.83;;;;;;;;;;5035618;28;20050;-78
2023/08/13 09:32:00;;;;;;;3.03;2.58;;;;;;;;;;5040947;28;20392;-80
2023/08/13 09:34:45;;;;;;;5.70;2.55;;;;;;;;;;5035217;28;20045;-79
2023/08/13 09:37:31;;;;;;;4.28;2.42;;;;;;;;;;5035262;28;20484;-78
2023/08/13 09:40:17;;;;;;;7.90;2.88;;;;;;;;;;5034687;28;20483;-78
2023/08/13 09:43:06;;;;;;;6.90;2.70;;;;;;;;;;5033261;28;20072;-79
2023/08/13 09:45:55;;;;;;;3.67;2.65;;;;;;;;;;5024085;28;20050;-81
2023/08/13 09:48:42;;;;;;;7.45;2.60;;;;;;;;;;5006774;28;20062;-79
2023/08/13 09:51:31;;;;;;;4.22;2.63;;;;;;;;;;5014559;28;20046;-77
2023/08/13 09:54:34;;;;;;;3.95;2.58;;;;;;;;;;5015050;28;20053;-78
2023/08/13 09:57:22;;;;;;;5.05;2.85;;;;;;;;;;5014280;28;20054;-78
2023/08/13 10:00:08;;;;;;;5.47;2.90;;;;;;;;;;5014554;28;20062;-78
2023/08/13 10:02:57;;;;;;;4.03;2.50;;;;;;;;;;5014922;28;20085;-77
2023/08/13 10:05:43;;;;;;;3.05;2.33;;;;;;;;;;5014767;28;20041;-77
2023/08/13 10:08:29;;;;;;;4.15;2.55;;;;;;;;;;5006957;28;20480;-76
2023/08/13 10:11:15;;;;;;;8.52;2.50;;;;;;;;;;5000100;28;20042;-78
2023/08/13 10:14:02;;;;;;;4.32;2.50;;;;;;;;;;5014258;28;20045;-79
2023/08/13 10:16:48;;;;;;;8.70;2.97;;;;;;;;;;5014790;28;20050;-76
2023/08/13 10:19:39;;;;;;;11.07;2.70;;;;;;;;;;5014513;28;20041;-78
2023/08/13 10:22:34;;;;;;;3.67;2.40;;;;;;;;;;5013918;28;20049;-78
2023/08/13 10:25:32;;;;;;;4.55;2.50;;;;;;;;;;5019509;28;20046;-79
2023/08/13 10:28:22;;;;;;;3.15;2.10;;;;;;;;;;5030225;28;20037;-78
2023/08/13 10:31:22;;;;;;;3.75;2.45;;;;;;;;;;5023891;28;20045;-78
2023/08/13 10:34:12;;;;;;;2.90;2.38;;;;;;;;;;5019510;28;20501;-80
2023/08/13 10:36:57;;;;;;;4.05;2.30;;;;;;;;;;5014970;28;20046;-80
2023/08/13 10:39:44;;;;;;;8.55;2.85;;;;;;;;;;5014128;28;20489;-80
2023/08/13 10:42:34;;;;;;;3.30;2.35;;;;;;;;;;5014718;28;20054;-79
2023/08/13 10:45:22;;;;;;;6.63;2.58;;;;;;;;;;5014717;28;20046;-80
2023/08/13 10:48:08;;;;;;;5.47;2.97;;;;;;;;;;5014550;28;20058;-80
2023/08/13 10:50:57;;;;;;;4.55;2.78;;;;;;;;;;5030410;28;20041;-80
2023/08/13 10:53:44;;;;;;;5.80;2.90;;;;;;;;;;5017085;28;20396;-79
2023/08/13 10:56:29;;;;;;;3.85;2.38;;;;;;;;;;5014091;28;20038;-78
2023/08/13 10:59:15;;;;;;;4.07;2.65;;;;;;;;;;5014152;28;20473;-77
2023/08/13 11:02:11;;;;;;;3.15;2.38;;;;;;;;;;4994036;28;20409;-79
2023/08/13 11:04:58;;;;;;;3.58;2.65;;;;;;;;;;4994182;28;20050;-78
2023/08/13 11:07:43;;;;;;;6.00;2.47;;;;;;;;;;4985703;28;20474;-78
2023/08/13 11:10:30;;;;;;;4.40;2.78;;;;;;;;;;5007182;28;20041;-83
2023/08/13 11:13:16;;;;;;;7.43;2.78;;;;;;;;;;5005249;28;20405;-78
2023/08/13 11:16:01;;;;;;;6.80;2.75;;;;;;;;;;5005173;28;20045;-78
2023/08/13 11:18:47;;;;;;;7.00;2.53;;;;;;;;;;5008059;28;20049;-78
2023/08/13 11:21:34;;;;;;;4.40;2.70;;;;;;;;;;5010818;28;20038;-78
2023/08/13 11:24:34;;;;;;;8.80;2.72;;;;;;;;;;5012800;28;20046;-79
2023/08/13 11:27:19;;;;;;;6.40;2.67;;;;;;;;;;5012952;28;20104;-79
2023/08/13 11:30:07;;;;;;;3.17;2.55;;;;;;;;;;5012293;28;20038;-79
2023/08/13 11:32:57;;;;;;;5.22;2.67;;;;;;;;;;5012132;28;20047;-78
2023/08/13 11:35:46;;;;;;;4.75;2.78;;;;;;;;;;5010228;28;20046;-79
2023/08/13 11:38:34;;;;;;;7.57;2.88;;;;;;;;;;5012033;28;20045;-80
2023/08/13 11:41:21;;;;;;;6.38;3.28;;;;;;;;;;5008842;28;20037;-77
2023/08/13 11:44:12;;;;;;;5.88;2.63;;;;;;;;;;5010918;28;20042;-78
2023/08/13 11:47:04;;;;;;;5.75;2.70;;;;;;;;;;5010000;28;20038;-79
2023/08/13 11:49:49;;;;;;;3.85;2.80;;;;;;;;;;5010355;28;20042;-77
2023/08/13 11:52:43;;;;;;;4.60;2.50;;;;;;;;;;5012888;28;20486;-80
2023/08/13 11:55:29;;;;;;;5.90;2.57;;;;;;;;;;5012304;28;20042;-82
2023/08/13 11:58:20;;;;;;;3.40;2.53;;;;;;;;;;4997434;28;20275;-80
2023/08/13 12:01:05;;;;;;;4.03;2.47;;;;;;;;;;5005739;28;20046;-80
2023/08/13 12:03:51;;;;;;;4.97;2.72;;;;;;;;;;5000997;28;20473;-78
2023/08/13 12:06:37;;;;;;;4.47;2.83;;;;;;;;;;5000580;28;20354;-79
2023/08/13 12:09:22;;;;;;;4.25;2.60;;;;;;;;;;5000432;28;20065;-79
2023/08/13 12:12:09;;;;;;;3.13;2.30;;;;;;;;;;4994535;28;20042;-81
2023/08/13 12:14:54;;;;;;;5.30;2.80;;;;;;;;;;4996213;28;20046;-79
2023/08/13 12:17:40;;;;;;;3.25;2.60;;;;;;;;;;5008609;28;20480;-77
2023/08/13 12:20:27;;;;;;;10.23;2.95;;;;;;;;;;4998761;28;20038;-79
2023/08/13 12:23:12;;;;;;;5.43;2.70;;;;;;;;;;4999518;28;20050;-78
2023/08/13 12:26:01;;;;;;;3.80;2.60;;;;;;;;;;4992796;28;20050;-78
2023/08/13 12:28:50;;;;;;;4.03;2.50;;;;;;;;;;4996058;28;20050;-80
2023/08/13 12:31:35;;;;;;;4.40;2.40;;;;;;;;;;4997598;28;20046;-77
2023/08/13 12:34:21;;;;;;;3.92;2.53;;;;;;;;;;5006630;28;20043;-78
2023/08/13 12:37:07;;;;;;;4.45;2.78;;;;;;;;;;5000821;28;20038;-77
2023/08/13 12:39:52;;;;;;;6.85;2.63;;;;;;;;;;5009305;28;20030;-79
2023/08/13 12:42:38;;;;;;;3.47;2.78;;;;;;;;;;5012751;28;20058;-78
2023/08/13 12:45:22;;;;;;;3.30;2.50;;;;;;;;;;5006951;28;20046;-80
2023/08/13 12:48:07;;;;;;;4.93;2.60;;;;;;;;;;5014680;28;20059;-79
2023/08/13 12:50:53;;;;;;;4.50;2.65;;;;;;;;;;5004091;28;20042;-80
2023/08/13 12:53:40;;;;;;;3.95;2.60;;;;;;;;;;4997745;28;20042;-77
2023/08/13 12:56:26;;;;;;;5.25;2.55;;;;;;;;;;5012289;28;20034;-78
2023/08/13 12:59:12;;;;;;;3.35;2.60;;;;;;;;;;4999080;28;20045;-79
2023/08/13 13:01:57;;;;;;;5.28;2.80;;;;;;;;;;5012218;28;20057;-79
2023/08/13 13:04:43;;;;;;;7.32;2.90;;;;;;;;;;5013818;28;20034;-80
2023/08/13 13:07:28;;;;;;;3.30;2.35;;;;;;;;;;5013013;28;20038;-79
2023/08/13 13:10:14;;;;;;;6.63;2.90;;;;;;;;;;5014346;28;20038;-77
2023/08/13 13:13:23;;;;;;;6.18;2.65;;;;;;;;;;5013050;28;20034;-77
2023/08/13 13:16:12;;;;;;;5.72;2.92;;;;;;;;;;5015051;28;20050;-79
2023/08/13 13:18:56;;;;;;;4.38;2.60;;;;;;;;;;5015849;28;20045;-82
2023/08/13 13:21:42;;;;;;;4.30;2.90;;;;;;;;;;5015710;28;20477;-78
2023/08/13 13:24:27;;;;;;;3.72;2.53;;;;;;;;;;5015304;28;20404;-77
2023/08/13 13:27:13;;;;;;;4.25;2.60;;;;;;;;;;5015217;28;20046;-77
2023/08/13 13:29:58;;;;;;;6.25;2.60;;;;;;;;;;5015879;28;20049;-81
2023/08/13 13:32:44;;;;;;;3.70;2.33;;;;;;;;;;5015528;28;20042;-77
2023/08/13 13:35:29;;;;;;;4.80;2.60;;;;;;;;;;5014874;28;20041;-76
2023/08/13 13:38:15;;;;;;;4.70;2.50;;;;;;;;;;5015779;28;20046;-79
2023/08/13 13:41:02;;;;;;;8.32;2.60;;;;;;;;;;5001002;28;20057;-78
2023/08/13 13:43:47;;;;;;;4.15;2.70;;;;;;;;;;5015064;28;20485;-79
2023/08/13 13:46:31;;;;;;;4.75;2.83;;;;;;;;;;5014508;28;20050;-77
2023/08/13 13:49:18;;;;;;;3.60;2.67;;;;;;;;;;5000599;28;20054;-78
2023/08/13 13:52:03;;;;;;;3.92;2.60;;;;;;;;;;5015366;28;20046;-78
2023/08/13 13:54:52;;;;;;;3.25;2.50;;;;;;;;;;5015603;28;20486;-78
2023/08/13 13:57:37;;;;;;;4.60;2.42;;;;;;;;;;5014766;28;20050;-80
2023/08/13 14:00:22;;;;;;;5.55;2.60;;;;;;;;;;5014022;28;20053;-80
2023/08/13 14:03:09;;;;;;;4.82;2.50;;;;;;;;;;5014816;28;20057;-77
2023/08/13 14:05:54;;;;;;;11.70;5.50;;;;;;;;;;5006906;28;20046;-80
2023/08/13 14:08:40;;;;;;;6.88;3.03;;;;;;;;;;5014797;28;20054;-79
2023/08/13 14:11:26;;;;;;;3.67;2.67;;;;;;;;;;5005377;28;20038;-81
2023/08/13 14:14:12;;;;;;;3.85;2.92;;;;;;;;;;5014523;28;20473;-78
2023/08/13 14:16:58;;;;;;;24.15;14.50;;;;;;;;;;5014665;28;20050;-78
2023/08/13 14:19:44;;;;;;;6.13;3.13;;;;;;;;;;5012821;28;20046;-79
2023/08/13 14:22:30;;;;;;;3.67;2.70;;;;;;;;;;5013244;28;20063;-80
2023/08/13 14:25:16;;;;;;;6.63;4.32;;;;;;;;;;5018896;28;20485;-80
2023/08/13 14:28:03;;;;;;;5.45;3.05;;;;;;;;;;5013301;28;20397;-79
2023/08/13 14:30:49;;;;;;;6.28;3.60;;;;;;;;;;5019522;28;20049;-79
2023/08/13 14:33:34;;;;;;;3.15;2.50;;;;;;;;;;5013324;28;20585;-79
2023/08/13 14:36:19;;;;;;;4.72;3.10;;;;;;;;;;5014533;28;20034;-79
2023/08/13 14:39:05;;;;;;;5.03;3.60;;;;;;;;;;5013713;28;20477;-78
2023/08/13 14:42:01;;;;;;;5.30;3.20;;;;;;;;;;5018350;28;20041;-79
2023/08/13 14:44:46;;;;;;;5.63;2.60;;;;;;;;;;5017969;28;20053;-77
2023/08/13 14:47:32;;;;;;;3.47;2.70;;;;;;;;;;5015323;28;20030;-76
2023/08/13 14:50:17;;;;;;;4.75;2.75;;;;;;;;;;5018712;28;20054;-80
2023/08/13 14:53:06;;;;;;;5.38;3.08;;;;;;;;;;5021483;28;20421;-77
2023/08/13 14:55:51;;;;;;;3.10;2.47;;;;;;;;;;5019174;28;20038;-78
2023/08/13 14:58:38;;;;;;;5.88;3.13;;;;;;;;;;5017562;28;20481;-79
2023/08/13 15:01:24;;;;;;;4.15;2.72;;;;;;;;;;4999900;28;20050;-78
2023/08/13 15:04:11;;;;;;;4.13;3.13;;;;;;;;;;5012844;28;20497;-78
2023/08/13 15:06:58;;;;;;;3.25;2.58;;;;;;;;;;5016303;28;20481;-80
2023/08/13 15:09:43;;;;;;;5.78;2.75;;;;;;;;;;5013280;28;20045;-79
2023/08/13 15:12:29;;;;;;;3.95;2.90;;;;;;;;;;5012955;28;20042;-78
2023/08/13 15:15:16;;;;;;;3.28;2.47;;;;;;;;;;5009643;28;20050;-78
2023/08/13 15:18:01;;;;;;;4.78;2.80;;;;;;;;;;5013419;28;20046;-78
2023/08/13 15:20:51;;;;;;;4.32;2.90;;;;;;;;;;5013245;28;20489;-77
2023/08/13 15:23:36;;;;;;;4.65;2.80;;;;;;;;;;5012490;28;20053;-78
2023/08/13 15:26:21;;;;;;;5.47;2.80;;;;;;;;;;5014153;28;20440;-78
2023/08/13 15:29:07;;;;;;;2.95;2.50;;;;;;;;;;5018722;28;20049;-78
2023/08/13 15:31:53;;;;;;;7.55;3.08;;;;;;;;;;5033483;28;20477;-78
2023/08/13 15:34:38;;;;;;;4.22;2.85;;;;;;;;;;5032787;28;20042;-77
2023/08/13 15:37:24;;;;;;;3.35;2.53;;;;;;;;;;5033696;28;20049;-79
2023/08/13 15:40:10;;;;;;;11.40;2.60;;;;;;;;;;5033203;28;20516;-79
2023/08/13 15:42:58;;;;;;;3.97;2.65;;;;;;;;;;5033476;28;20049;-80
2023/08/13 15:45:43;;;;;;;3.75;2.63;;;;;;;;;;5024668;28;20400;-79
2023/08/13 15:48:28;;;;;;;5.22;2.42;;;;;;;;;;5017147;28;20045;-79
2023/08/13 15:51:14;;;;;;;4.30;2.63;;;;;;;;;;5011477;28;20045;-76
2023/08/13 15:53:59;;;;;;;3.92;2.70;;;;;;;;;;5011691;28;20041;-78
2023/08/13 15:56:45;;;;;;;4.38;2.58;;;;;;;;;;5012714;28;20050;-79
2023/08/13 15:59:31;;;;;;;7.38;2.47;;;;;;;;;;5015665;28;20046;-78
2023/08/13 16:02:16;;;;;;;3.92;2.50;;;;;;;;;;5015400;28;20037;-78
2023/08/13 16:05:02;;;;;;;3.92;2.63;;;;;;;;;;5009471;28;20049;-78
2023/08/13 16:07:47;;;;;;;3.35;2.58;;;;;;;;;;5016002;28;20045;-77
2023/08/13 16:10:34;;;;;;;4.35;2.53;;;;;;;;;;5017098;28;20049;-78
2023/08/13 16:13:20;;;;;;;4.13;2.80;;;;;;;;;;5016951;28;20046;-79
2023/08/13 16:16:05;;;;;;;5.25;2.30;;;;;;;;;;5016814;28;20075;-79
2023/08/13 16:18:51;;;;;;;4.35;2.70;;;;;;;;;;5016619;28;20038;-79
2023/08/13 16:21:36;;;;;;;2.70;2.50;;;;;;;;;;5016838;28;20038;-77
2023/08/13 16:24:22;;;;;;;5.28;2.70;;;;;;;;;;5012503;28;20057;-80
2023/08/13 16:27:07;;;;;;;4.63;2.95;;;;;;;;;;5021782;28;20045;-79
2023/08/13 16:29:52;;;;;;;3.83;2.42;;;;;;;;;;5013815;28;20053;-78
2023/08/13 16:32:38;;;;;;;4.85;2.67;;;;;;;;;;5017249;28;20053;-80
2023/08/13 16:35:23;;;;;;;3.75;2.40;;;;;;;;;;5016818;28;20485;-77
2023/08/13 16:38:09;;;;;;;3.42;2.65;;;;;;;;;;5014208;28;20041;-78